createdAt,value
2019-04-11T00:01:14.151Z,12.34
2019-04-11T00:03:41.690Z,12.32
2019-04-11T00:06:08.044Z,12.30
2019-04-11T00:08:37.007Z,12.26
2019-04-11T00:11:03.788Z,12.29
2019-04-11T00:13:34.323Z,12.30
2019-04-11T00:15:57.851Z,12.34
2019-04-11T00:18:25.263Z,12.23
2019-04-11T00:20:52.825Z,12.12
2019-04-11T00:23:20.104Z,12.11
2019-04-11T00:25:47.541Z,12.22
2019-04-11T00:28:15.341Z,12.38
2019-04-11T00:30:42.373Z,12.48
2019-04-11T00:33:09.890Z,12.52
2019-04-11T00:35:37.250Z,12.58
2019-04-11T00:38:05.555Z,12.55
2019-04-11T00:40:33.216Z,12.43
2019-04-11T00:42:59.519Z,12.38
2019-04-11T00:45:27.560Z,12.37
2019-04-11T00:47:55.311Z,12.46
2019-04-11T00:50:21.775Z,12.43
2019-04-11T00:52:49.633Z,12.38
2019-04-11T00:55:17.548Z,12.42
2019-04-11T00:57:45.121Z,12.46
2019-04-11T01:00:11.661Z,12.46
2019-04-11T01:02:40.709Z,12.41
2019-04-11T01:05:07.560Z,12.33
2019-04-11T01:07:35.236Z,12.24
2019-04-11T01:10:01.457Z,12.23
2019-04-11T01:12:28.977Z,12.22
2019-04-11T01:14:57.298Z,12.24
2019-04-11T01:17:23.759Z,12.28
2019-04-11T01:19:51.199Z,12.28
2019-04-11T01:22:18.640Z,12.31
2019-04-11T01:24:46.102Z,12.35
2019-04-11T01:27:13.951Z,12.47
2019-04-11T01:29:41.861Z,12.49
2019-04-11T01:32:08.389Z,12.55
2019-04-11T01:34:36.996Z,12.48
2019-04-11T01:37:03.787Z,12.34
2019-04-11T01:39:33.226Z,12.28
2019-04-11T01:42:00.789Z,12.24
2019-04-11T01:44:28.424Z,12.19
2019-04-11T01:46:56.297Z,12.19
2019-04-11T01:49:24.039Z,12.23
2019-04-11T01:51:50.804Z,12.23
2019-04-11T01:54:17.924Z,12.28
2019-04-11T01:56:45.457Z,12.24
2019-04-11T01:59:13.218Z,12.23
2019-04-11T02:01:41.108Z,12.25
2019-04-11T02:04:08.470Z,12.21
2019-04-11T02:06:36.243Z,12.21
2019-04-11T02:09:03.929Z,12.24
2019-04-11T02:11:31.736Z,12.25
2019-04-11T02:14:09.846Z,12.22
2019-04-11T02:16:25.683Z,12.14
2019-04-11T02:18:54.020Z,12.11
2019-04-11T02:21:20.531Z,12.05
2019-04-11T02:23:49.352Z,12.04
2019-04-11T02:26:20.932Z,12.03
2019-04-11T02:28:48.746Z,11.96
2019-04-11T02:31:17.143Z,11.99
2019-04-11T02:33:43.308Z,12.11
2019-04-11T02:36:11.828Z,12.07
2019-04-11T02:38:38.916Z,12.05
2019-04-11T02:41:06.473Z,12.05
2019-04-11T02:43:34.087Z,12.02
2019-04-11T02:46:12.987Z,11.98
2019-04-11T02:48:28.782Z,11.97
2019-04-11T02:50:56.321Z,11.87
2019-04-11T02:53:23.628Z,11.89
2019-04-11T02:55:49.740Z,11.87
2019-04-11T02:58:18.522Z,11.85
2019-04-11T03:00:45.082Z,11.85
2019-04-11T03:03:13.017Z,11.86
2019-04-11T03:05:39.481Z,11.83
2019-04-11T03:08:10.674Z,11.82
2019-04-11T03:10:35.485Z,11.82
2019-04-11T03:13:02.784Z,11.87
2019-04-11T03:15:46.661Z,11.91
2019-04-11T03:18:01.858Z,11.88
2019-04-11T03:20:31.411Z,11.80
2019-04-11T03:22:57.316Z,11.73
2019-04-11T03:25:18.531Z,11.67
2019-04-11T03:27:47.476Z,11.68
2019-04-11T03:30:17.257Z,11.71
2019-04-11T03:35:59.777Z,11.76
2019-04-11T03:37:58.702Z,11.77
2019-04-11T03:40:22.518Z,11.74
2019-04-11T03:42:43.316Z,11.70
2019-04-11T03:45:21.004Z,11.70
2019-04-11T03:47:37.371Z,11.74
2019-04-11T03:50:00.880Z,11.80
2019-04-11T03:52:20.848Z,11.80
2019-04-11T03:54:49.440Z,11.77
2019-04-11T03:57:16.015Z,11.79
2019-04-11T03:59:43.759Z,11.87
2019-04-11T04:02:12.418Z,11.87
2019-04-11T04:04:39.148Z,11.88
2019-04-11T04:07:06.784Z,11.81
2019-04-11T04:09:32.859Z,11.74
2019-04-11T04:12:00.370Z,11.75
2019-04-11T04:14:28.568Z,11.78
2019-04-11T04:17:01.184Z,11.78
2019-04-11T04:22:32.496Z,12.21
2019-04-11T04:25:01.094Z,12.20
2019-04-11T04:27:28.029Z,12.09
2019-04-11T04:29:57.661Z,12.06
2019-04-11T04:32:23.722Z,12.07
2019-04-11T04:34:50.822Z,12.00
2019-04-11T04:37:18.115Z,12.02
2019-04-11T04:39:45.684Z,12.03
2019-04-11T04:42:23.493Z,12.05
2019-04-11T04:44:40.937Z,12.08
2019-04-11T04:47:17.894Z,12.11
2019-04-11T04:49:36.459Z,12.09
2019-04-11T04:52:03.995Z,12.09
2019-04-11T04:54:30.758Z,12.09
2019-04-11T04:56:58.337Z,12.01
2019-04-11T04:59:25.233Z,11.88
2019-04-11T05:01:53.319Z,11.83
2019-04-11T05:04:21.034Z,11.83
2019-04-11T05:06:48.985Z,11.84
2019-04-11T05:09:14.784Z,11.85
2019-04-11T05:11:44.525Z,11.87
2019-04-11T05:14:10.508Z,11.88
2019-04-11T05:16:37.832Z,11.98
2019-04-11T05:19:06.514Z,12.04
2019-04-11T05:21:33.092Z,12.06
2019-04-11T05:24:00.192Z,12.03
2019-04-11T05:26:27.839Z,12.05
2019-04-11T05:28:55.244Z,12.05
2019-04-11T05:31:22.704Z,12.01
2019-04-11T05:33:49.868Z,12.05
2019-04-11T05:36:18.584Z,12.06
2019-04-11T05:38:44.702Z,12.02
2019-04-11T05:41:13.485Z,12.02
2019-04-11T05:43:41.274Z,12.06
2019-04-11T05:48:41.215Z,12.03
2019-04-11T05:51:08.866Z,12.01
2019-04-11T05:53:36.990Z,12.00
2019-04-11T05:56:03.739Z,12.11
2019-04-11T05:58:30.867Z,12.11
2019-04-11T06:01:14.527Z,12.14
2019-04-11T06:03:43.135Z,12.16
2019-04-11T06:06:24.586Z,12.25
2019-04-11T06:08:51.530Z,12.35
2019-04-11T06:11:22.220Z,12.38
2019-04-11T06:13:48.826Z,12.33
2019-04-11T06:16:15.108Z,12.23
2019-04-11T06:18:45.840Z,12.28
2019-04-11T06:21:13.771Z,12.40
2019-04-11T06:26:38.934Z,12.49
2019-04-11T06:29:22.840Z,12.41
2019-04-11T06:31:47.526Z,12.28
2019-04-11T06:34:15.568Z,12.19
2019-04-11T06:36:43.393Z,12.18
2019-04-11T06:42:04.143Z,12.48
2019-04-11T06:44:30.058Z,12.43
2019-04-11T06:49:58.609Z,12.87
2019-04-11T06:52:26.510Z,12.86
2019-04-11T06:54:56.617Z,12.79
2019-04-11T06:57:25.747Z,12.75
2019-04-11T06:59:52.995Z,12.67
2019-04-11T07:02:23.292Z,12.59
2019-04-11T07:07:41.020Z,12.71
2019-04-11T07:10:09.549Z,12.64
2019-04-11T07:12:47.127Z,12.65
2019-04-11T07:15:14.489Z,12.67
2019-04-11T07:17:48.095Z,12.56
2019-04-11T07:20:14.942Z,12.46
2019-04-11T07:22:48.824Z,12.46
2019-04-11T07:25:30.999Z,12.52
2019-04-11T07:27:59.344Z,12.52
2019-04-11T07:33:24.534Z,12.70
2019-04-11T07:35:59.736Z,12.70
2019-04-11T07:38:24.999Z,12.58
2019-04-11T07:40:56.075Z,12.49
2019-04-11T07:43:22.619Z,12.44
2019-04-11T07:45:49.863Z,12.39
2019-04-11T07:48:17.731Z,12.43
2019-04-11T07:50:46.432Z,12.47
2019-04-11T07:53:12.872Z,12.58
2019-04-11T07:55:40.062Z,12.73
2019-04-11T07:58:25.176Z,12.96
2019-04-11T08:01:03.621Z,13.31
2019-04-11T08:06:31.047Z,14.03
2019-04-11T08:09:13.168Z,13.98
2019-04-11T08:11:40.624Z,13.99
2019-04-11T08:14:10.540Z,13.96
2019-04-11T08:19:36.327Z,13.90
2019-04-11T08:22:12.217Z,13.77
2019-04-11T08:24:45.270Z,13.57
2019-04-11T08:27:27.583Z,13.44
2019-04-11T08:29:54.988Z,13.26
2019-04-11T08:32:27.940Z,13.21
2019-04-11T08:35:08.133Z,13.21
2019-04-11T08:37:39.999Z,13.13
2019-04-11T08:40:06.643Z,13.06
2019-04-11T08:42:37.755Z,13.03
2019-04-11T08:45:04.092Z,12.87
2019-04-11T08:47:41.979Z,12.86
2019-04-11T08:49:58.754Z,12.98
2019-04-11T08:52:27.942Z,12.89
2019-04-11T08:54:57.995Z,12.97
2019-04-11T08:57:28.968Z,13.16
2019-04-11T09:02:49.182Z,13.53
2019-04-11T09:05:22.723Z,13.64
2019-04-11T09:07:52.057Z,13.77
2019-04-11T09:10:24.205Z,13.69
2019-04-11T09:12:53.066Z,13.64
2019-04-11T09:15:26.607Z,13.43
2019-04-11T09:17:59.059Z,13.24
2019-04-11T09:20:34.434Z,13.24
2019-04-11T09:23:01.649Z,13.25
2019-04-11T09:25:45.426Z,13.24
2019-04-11T09:28:13.718Z,13.29
2019-04-11T09:30:41.233Z,13.32
2019-04-11T09:33:12.941Z,13.35
2019-04-11T09:35:41.569Z,13.40
2019-04-11T09:38:09.036Z,13.24
2019-04-11T09:40:45.884Z,13.11
2019-04-11T09:43:15.840Z,13.10
2019-04-11T09:45:48.318Z,13.00
2019-04-11T09:48:22.316Z,13.06
2019-04-11T09:50:48.981Z,13.30
2019-04-11T09:53:16.304Z,13.55
2019-04-11T09:55:46.391Z,14.02
2019-04-11T09:58:19.636Z,14.43
2019-04-11T10:00:47.792Z,14.72
2019-04-11T10:03:17.707Z,14.86
2019-04-11T10:05:50.308Z,15.21
2019-04-11T10:08:16.894Z,15.35
2019-04-11T10:10:48.995Z,15.32
2019-04-11T10:13:26.900Z,15.18
2019-04-11T10:18:55.679Z,15.14
2019-04-11T10:21:23.021Z,14.97
2019-04-11T10:26:49.998Z,14.56
2019-04-11T10:29:33.359Z,14.53
2019-04-11T10:32:01.049Z,14.48
2019-04-11T10:34:43.962Z,14.45
2019-04-11T10:37:11.785Z,14.77
2019-04-11T10:39:44.829Z,15.24
2019-04-11T10:42:12.699Z,15.44
2019-04-11T10:44:45.755Z,15.30
2019-04-11T10:47:16.460Z,15.37
2019-04-11T10:52:42.448Z,16.05
2019-04-11T10:55:09.431Z,16.05
2019-04-11T10:57:40.413Z,15.95
2019-04-11T11:00:14.183Z,16.14
2019-04-11T11:02:41.807Z,15.99
2019-04-11T11:05:09.335Z,15.82
2019-04-11T11:07:37.058Z,15.81
2019-04-11T11:10:04.543Z,15.82
2019-04-11T11:12:32.974Z,16.24
2019-04-11T11:15:05.155Z,16.48
2019-04-11T11:17:54.535Z,16.53
2019-04-11T11:23:16.796Z,16.95
2019-04-11T11:28:55.229Z,16.93
2019-04-11T11:31:28.156Z,17.05
2019-04-11T11:33:56.538Z,17.35
2019-04-11T11:39:15.308Z,17.72
2019-04-11T11:41:46.888Z,17.99
2019-04-11T11:44:14.068Z,17.92
2019-04-11T11:46:44.530Z,17.54
2019-04-11T11:49:12.099Z,17.42
2019-04-11T11:51:41.505Z,17.31
2019-04-11T11:54:13.770Z,17.04
2019-04-11T11:56:42.282Z,17.18
2019-04-11T11:59:25.312Z,17.03
2019-04-11T12:01:54.274Z,17.07
2019-04-11T12:04:27.714Z,17.37
2019-04-11T12:06:59.762Z,17.36
2019-04-11T12:09:22.406Z,17.15
2019-04-11T12:15:01.494Z,17.66
2019-04-11T12:17:32.478Z,17.99
2019-04-11T12:20:09.764Z,18.10
2019-04-11T12:22:30.714Z,17.64
2019-04-11T12:24:58.787Z,17.33
2019-04-11T12:27:26.803Z,17.44
2019-04-11T12:30:09.559Z,17.29
2019-04-11T12:32:46.670Z,17.30
2019-04-11T12:35:19.890Z,17.18
2019-04-11T12:37:50.352Z,17.03
2019-04-11T12:40:19.727Z,16.90
2019-04-11T12:42:47.205Z,16.75
2019-04-11T12:45:20.998Z,16.73
2019-04-11T12:47:48.713Z,17.02
2019-04-11T12:53:09.170Z,17.55
2019-04-11T12:55:54.238Z,17.55
2019-04-11T12:58:25.287Z,17.53
2019-04-11T13:04:01.654Z,17.33
2019-04-11T13:06:35.271Z,17.12
2019-04-11T13:09:02.827Z,17.14
2019-04-11T13:11:30.279Z,17.28
2019-04-11T13:14:12.616Z,17.56
2019-04-11T13:16:40.039Z,18.20
2019-04-11T13:22:05.933Z,19.17
2019-04-11T13:24:33.383Z,19.43
2019-04-11T13:27:13.475Z,19.23
2019-04-11T13:29:57.691Z,19.17
2019-04-11T13:32:29.497Z,19.17
2019-04-11T13:35:12.670Z,19.22
2019-04-11T13:40:53.900Z,19.04
2019-04-11T13:43:36.896Z,19.00
2019-04-11T13:46:25.285Z,19.06
2019-04-11T13:48:57.149Z,19.20
2019-04-11T13:51:38.338Z,19.26
2019-04-11T13:54:11.395Z,18.80
2019-04-11T13:56:45.186Z,18.57
2019-04-11T13:59:11.798Z,18.38
2019-04-11T14:01:39.209Z,18.25
2019-04-11T14:04:08.688Z,18.31
2019-04-11T14:06:35.055Z,18.50
2019-04-11T14:09:04.290Z,18.67
2019-04-11T14:11:33.754Z,18.26
2019-04-11T14:13:59.153Z,18.35
2019-04-11T14:16:26.576Z,18.36
2019-04-11T14:18:54.934Z,18.02
2019-04-11T14:21:22.346Z,17.92
2019-04-11T14:26:46.118Z,17.82
2019-04-11T14:29:15.352Z,17.73
2019-04-11T14:31:46.618Z,17.82
2019-04-11T14:34:19.610Z,17.99
2019-04-11T14:36:47.952Z,18.02
2019-04-11T14:39:31.528Z,17.82
2019-04-11T14:42:18.474Z,17.87
2019-04-11T14:44:45.849Z,17.87
2019-04-11T14:47:17.678Z,17.85
2019-04-11T14:49:45.089Z,17.86
2019-04-11T14:52:16.929Z,17.77
2019-04-11T14:54:42.378Z,17.62
2019-04-11T14:57:16.364Z,17.38
2019-04-11T14:59:43.811Z,17.09
2019-04-11T15:02:25.041Z,17.06
2019-04-11T15:04:58.027Z,16.94
2019-04-11T15:07:25.443Z,16.54
2019-04-11T15:09:55.912Z,16.22
2019-04-11T15:12:25.698Z,16.06
2019-04-11T15:17:49.069Z,16.49
2019-04-11T15:20:22.334Z,16.35
2019-04-11T15:22:51.707Z,16.29
2019-04-11T15:28:17.684Z,16.39
2019-04-11T15:30:49.386Z,16.24
2019-04-11T15:33:20.187Z,16.13
2019-04-11T15:35:48.472Z,16.02
2019-04-11T15:38:21.616Z,15.97
2019-04-11T15:40:49.035Z,15.85
2019-04-11T15:43:22.111Z,15.88
2019-04-11T15:45:49.567Z,15.95
2019-04-11T15:48:23.577Z,15.85
2019-04-11T15:51:05.884Z,15.75
2019-04-11T15:56:20.724Z,15.78
2019-04-11T15:58:48.192Z,15.68
2019-04-11T16:01:21.149Z,15.49
2019-04-11T16:03:48.556Z,15.40
2019-04-11T16:06:21.465Z,15.35
2019-04-11T16:08:48.884Z,15.29
2019-04-11T16:11:16.788Z,15.21
2019-04-11T16:13:46.123Z,15.16
2019-04-11T16:16:13.546Z,15.10
2019-04-11T16:18:47.148Z,15.07
2019-04-11T16:21:18.643Z,15.00
2019-04-11T16:26:35.862Z,15.07
2019-04-11T16:29:19.972Z,15.04
2019-04-11T16:31:47.378Z,14.98
2019-04-11T16:34:18.322Z,14.97
2019-04-11T16:36:45.737Z,14.92
2019-04-11T16:39:28.791Z,14.79
2019-04-11T16:41:56.270Z,14.63
2019-04-11T16:44:26.097Z,14.48
2019-04-11T16:46:59.072Z,14.41
2019-04-11T16:49:26.871Z,14.22
2019-04-11T16:51:54.388Z,14.15
2019-04-11T16:54:22.757Z,14.06
2019-04-11T16:56:49.713Z,14.03
2019-04-11T16:59:17.818Z,13.98
2019-04-11T17:01:44.745Z,13.85
2019-04-11T17:04:12.155Z,13.74
2019-04-11T17:06:50.290Z,13.64
2019-04-11T17:09:18.718Z,13.52
2019-04-11T17:11:46.145Z,13.50
2019-04-11T17:14:13.531Z,13.43
2019-04-11T17:16:41.616Z,13.44
2019-04-11T17:19:11.676Z,13.37
2019-04-11T17:21:43.163Z,13.21
2019-04-11T17:24:03.938Z,13.07
2019-04-11T17:26:31.395Z,13.09
2019-04-11T17:28:58.790Z,13.12
2019-04-11T17:31:26.650Z,13.05
2019-04-11T17:33:53.671Z,12.97
2019-04-11T17:36:21.128Z,12.88
2019-04-11T17:38:48.566Z,12.76
2019-04-11T17:41:15.970Z,12.71
2019-04-11T17:43:46.767Z,12.69
2019-04-11T17:46:11.991Z,12.66
2019-04-11T17:48:39.388Z,12.67
2019-04-11T17:51:09.452Z,12.64
2019-04-11T17:53:34.325Z,12.62
2019-04-11T17:56:01.728Z,12.60
2019-04-11T17:58:29.148Z,12.61
2019-04-11T18:00:57.094Z,12.61
2019-04-11T18:03:24.558Z,12.51
2019-04-11T18:05:51.966Z,12.55
2019-04-11T18:08:20.217Z,12.55
2019-04-11T18:10:46.804Z,12.55
2019-04-11T18:13:14.193Z,12.54
2019-04-11T18:15:41.629Z,12.48
2019-04-11T18:18:09.031Z,12.43
2019-04-11T18:20:37.076Z,12.41
2019-04-11T18:23:03.873Z,12.39
2019-04-11T18:25:31.430Z,12.34
2019-04-11T18:27:58.871Z,12.27
2019-04-11T18:30:26.299Z,12.21
2019-04-11T18:32:53.735Z,12.21
2019-04-11T18:35:21.148Z,12.16
2019-04-11T18:37:48.764Z,12.12
2019-04-11T18:40:16.170Z,12.09
2019-04-11T18:42:43.610Z,12.09
2019-04-11T18:45:11.023Z,12.06
2019-04-11T18:47:38.440Z,12.08
2019-04-11T18:50:05.942Z,12.07
2019-04-11T18:52:33.409Z,12.09
2019-04-11T18:55:00.840Z,12.08
2019-04-11T18:57:28.279Z,12.13
2019-04-11T18:59:55.682Z,12.13
2019-04-11T19:02:23.102Z,12.17
2019-04-11T19:04:50.540Z,12.19
2019-04-11T19:07:27.309Z,12.16
2019-04-11T19:09:45.395Z,12.11
2019-04-11T19:12:15.620Z,12.08
2019-04-11T19:14:40.246Z,12.07
2019-04-11T19:17:07.682Z,12.07
2019-04-11T19:19:35.094Z,12.02
2019-04-11T19:22:02.515Z,12.02
2019-04-11T19:24:35.329Z,12.09
2019-04-11T19:26:57.444Z,12.10
2019-04-11T19:29:25.588Z,12.07
2019-04-11T19:31:52.282Z,12.09
2019-04-11T19:34:19.731Z,12.08
2019-04-11T19:36:47.151Z,12.05
2019-04-11T19:39:14.689Z,12.01
2019-04-11T19:41:41.999Z,12.04
2019-04-11T19:44:09.410Z,12.10
2019-04-11T19:46:36.816Z,12.11
2019-04-11T19:49:04.260Z,12.11
2019-04-11T19:51:31.686Z,12.08
2019-04-11T19:54:02.915Z,12.05
2019-04-11T19:56:31.528Z,12.02
2019-04-11T19:58:58.932Z,11.98
2019-04-11T20:01:26.595Z,11.97
2019-04-11T20:03:54.666Z,11.92
2019-04-11T20:06:21.477Z,11.92
2019-04-11T20:08:48.904Z,11.93
2019-04-11T20:11:16.333Z,11.94
2019-04-11T20:13:43.893Z,11.86
2019-04-11T20:16:12.501Z,11.84
2019-04-11T20:18:49.955Z,11.81
2019-04-11T20:21:07.507Z,11.78
2019-04-11T20:23:33.503Z,11.72
2019-04-11T20:26:01.486Z,11.71
2019-04-11T20:28:28.903Z,11.68
2019-04-11T20:30:56.327Z,11.66
2019-04-11T20:33:27.278Z,11.68
2019-04-11T20:35:51.236Z,11.63
2019-04-11T20:38:18.646Z,11.61
2019-04-11T20:40:46.061Z,11.62
2019-04-11T20:43:13.485Z,11.60
2019-04-11T20:45:40.895Z,11.59
2019-04-11T20:48:08.291Z,11.59
2019-04-11T20:50:35.713Z,11.61
2019-04-11T20:53:12.039Z,11.63
2019-04-11T20:55:31.552Z,11.63
2019-04-11T20:57:58.963Z,11.63
2019-04-11T21:00:26.399Z,11.62
2019-04-11T21:02:58.083Z,11.64
2019-04-11T21:05:21.234Z,11.68
2019-04-11T21:07:48.709Z,11.65
2019-04-11T21:10:16.131Z,11.63
2019-04-11T21:12:43.546Z,11.65
2019-04-11T21:15:10.968Z,11.62
2019-04-11T21:17:38.389Z,11.59
2019-04-11T21:20:05.785Z,11.55
2019-04-11T21:22:33.223Z,11.51
2019-04-11T21:25:00.685Z,11.48
2019-04-11T21:27:28.924Z,11.47
2019-04-11T21:29:59.779Z,11.47
2019-04-11T21:32:22.933Z,11.42
2019-04-11T21:34:50.378Z,11.40
2019-04-11T21:37:17.854Z,11.42
2019-04-11T21:39:45.250Z,11.43
2019-04-11T21:42:12.671Z,11.42
2019-04-11T21:44:40.075Z,11.39
2019-04-11T21:47:07.995Z,11.38
2019-04-11T21:49:36.955Z,11.39
2019-04-11T21:52:03.218Z,11.36
2019-04-11T21:54:29.777Z,11.35
2019-04-11T21:56:57.225Z,11.31
2019-04-11T21:59:24.619Z,11.32
2019-04-11T22:01:54.120Z,11.32
2019-04-11T22:04:19.497Z,11.24
2019-04-11T22:06:46.927Z,11.23
2019-04-11T22:09:14.334Z,11.22
2019-04-11T22:11:41.749Z,11.20
2019-04-11T22:14:11.271Z,11.20
2019-04-11T22:16:36.588Z,11.18
2019-04-11T22:19:04.095Z,11.16
2019-04-11T22:21:31.711Z,11.18
2019-04-11T22:23:59.286Z,11.16
2019-04-11T22:26:26.721Z,11.16
2019-04-11T22:28:55.094Z,11.13
2019-04-11T22:31:24.729Z,11.11
2019-04-11T22:33:59.712Z,11.10
2019-04-11T22:36:27.858Z,11.07
2019-04-11T22:38:54.538Z,11.06
2019-04-11T22:41:22.010Z,11.04
2019-04-11T22:43:49.422Z,11.03
2019-04-11T22:46:20.984Z,10.97
2019-04-11T22:48:44.353Z,10.94
2019-04-11T22:51:11.966Z,10.95
2019-04-11T22:53:40.762Z,10.96
2019-04-11T22:56:06.574Z,10.95
2019-04-11T22:58:33.981Z,10.92
2019-04-11T23:01:01.386Z,10.92
2019-04-11T23:03:28.822Z,10.95
2019-04-11T23:05:56.215Z,10.97
2019-04-11T23:08:23.622Z,10.93
2019-04-11T23:10:51.040Z,10.93
2019-04-11T23:13:18.444Z,10.92
2019-04-11T23:15:45.863Z,10.91
2019-04-11T23:18:14.053Z,10.91
2019-04-11T23:20:43.809Z,10.86
2019-04-11T23:23:08.104Z,10.84
2019-04-11T23:25:35.527Z,10.76
2019-04-11T23:28:02.939Z,10.72
2019-04-11T23:30:30.355Z,10.71
2019-04-11T23:32:57.778Z,10.61
2019-04-11T23:35:25.178Z,10.62
2019-04-11T23:37:52.653Z,10.63
2019-04-11T23:40:20.980Z,10.62
2019-04-11T23:42:47.820Z,10.65
2019-04-11T23:45:14.404Z,10.60
2019-04-11T23:47:41.817Z,10.58
2019-04-11T23:50:09.224Z,10.54
2019-04-11T23:52:36.663Z,10.54
2019-04-11T23:55:04.095Z,10.51
2019-04-11T23:57:31.827Z,10.48
2019-04-11T23:59:59.782Z,10.53
